Airfield :







YOU CAN JOIN US ON...

 
LOGIN :

Register | Disclaimer

   EN    FR    IT 

 









Legend :    VFR   Marginal VFR   IFR   Intensive IFR   Very Intensive IFR
Visi :
Ceiling :
>= 8 km
>= 3000ft
5 to 8 km
1000 to 3000 ft
1500m to 5 km
500 to 1000 ft
800 to 1500m
200 to 500 ft
< 800m
< 200 ft
Symbols :   Thunderstorms  Fog  Heavy snow  Heavy precipitations  Wind > 20 kt






- Airport Elevation : 352 ft


KAUG - Augusta State

CURRENT METAR :
  • 252149Z AUTO 31003KT 10SM SCT008 BKN027 OVC046 M03/M03 A3029 RMK AO2

EXPIRED METARs :
  • 252053Z AUTO 00000KT 9SM OVC009 M03/M04 A3030 RMK AO2 SLP266 60001 I3001 T10331039 56022
  • 251953Z AUTO 34004KT 9SM OVC007 M03/M04 A3031 RMK AO2 UPB11E47SNE11B19E28 SLP270 P0000 I1001 T10331039

TAF KAUG
Valid from the 25 at 21:00 until the 26 at 18:00 UTC


252047Z 2521/2618 16008KT 6SM -SHSN OVC008
FM260000 27004KT P6SM OVC017
FM260500 VRB02KT 4SM -FZDZ OVC025
FM261000 VRB02KT 1SM -SHSN OVC003
KZBW FIR / North America



MET'MAP, your aeronautical weather chart ! - Copyright ORBIFLY December 2007 - Disclaimer

ORBIFLY MET'MAP TEAM :

Programming & Development : Alexandra Zaïnal
Concept & original design : Baudouin d'Aumeries
Assistance for programming : Marc-Olivier Méhu
Technical & hardware support : Manuel Goepfert

Contact : metmap@orbifly.com




SOURCES & CREDITS :

   NOAA